Tiempo atmosférico en la estación meteorológica de Vega de San Mateo, Las Palmas (1702 m.)



Fecha
DESCASC
Temp. máxima en grados centígrados (hora)
DESCASC
Temp. mínima en grados centígrados (hora)
DESCASC
Temp. media en grados centígrados
DESCASC
Racha de viento máxima en m/sg (hora)
DESCASC
Velocidad máxima media en intervalos de 10 minutos(hora)
DESCASC
Precipitaciones diarias en mm
DESCASC
Precipitaciones de 00:00 a 06:00 en mm
DESCASC
Precipitaciones de 06:00 a 12:00 en mm
DESCASC
Precipitaciones de 12:00 a 18:00 en mm
DESCASC
Precipitaciones de 18:00 a 24:00 en mm
DESCASC
22-01-2020 6.1 (11:50) -1.7 (07:10) 2.2 5.28 (13:40) 3.61 (15:40) 0.2 0 0.2 0 0
21-01-2020 3.5 (00:20) -0.2 (23:10) 1.6 7.78 (12:00) 4.44 (12:00) 1 0.4 0.4 0 0.2
20-01-2020 12.4 (13:40) 2.1 (20:10) 7.2 9.72 (00:30) 5.28 (00:10) 0.2 0 0 0 0.2
19-01-2020 14.1 (11:40) 7.5 (00:00) 10.8 11.67 (23:59) 6.39 (23:20) 0 0 0 0 0
18-01-2020 15.4 (12:20) 9.3 (00:00) 12.3 10.56 (19:40) 6.94 (20:20) 0 0 0 0 0
17-01-2020 15.6 (11:30) 7.7 (00:00) 11.7 8.89 (21:20) 6.11 (21:00) 0 0 0 0 0
16-01-2020 12.7 (11:50) 2.6 (00:00) 7.6 6.94 (23:59) 4.17 (23:50) 0 0 0 0 0
15-01-2020 11.3 (10:10) 2.8 (00:00) 7.1 8.89 (01:40) 5 (01:30) 0 0 0 0 0
14-01-2020 8.9 (15:10) 3.4 (00:00) 6.1 12.5 (02:30) 5.56 (07:20) 0 0 0 0 0
13-01-2020 9.7 (11:50) 4.6 (00:00) 7.1 12.5 (01:40) 7.22 (00:40) 0 0 0 0 0
12-01-2020 14.3 (13:20) 2 (00:00) 8.2 12.22 (22:20) 8.06 (22:20) 0.4 0.4 0 0 0
11-01-2020 14.1 (12:10) 3.1 (00:00) 8.6 11.39 (21:30) 6.39 (21:30) 0.8 0 0 0 0.8
10-01-2020 7.4 (11:00) 3.2 (00:00) 5.3 13.06 (01:00) 7.22 (00:50) 8 1.2 5.8 1 0
09-01-2020 5 (19:50) 2.7 (00:00) 3.9 13.06 (23:00) 6.39 (23:50) 0.6 0 0 0 0.6
08-01-2020 5 (13:30) 2.7 (00:00) 3.9 14.17 (09:00) 5.83 (06:30) 0.6 0 0.4 0 0.2
07-01-2020 6 (15:00) 2.5 (00:00) 4.3 13.06 (06:00) 6.94 (05:50) 3 3 0 0 0
06-01-2020 5.3 (14:30) 3 (00:00) 4.2 12.5 (09:20) 5.83 (09:20) 2.6 0.4 0.6 0 1.6
05-01-2020 13.5 (11:40) 3.9 (00:00) 8.7 10.56 (22:00) 5.28 (21:30) 0 0 0 0 0
04-01-2020 14.5 (11:20) 8.2 (00:00) 11.3 11.67 (02:10) 6.94 (00:10) 0 0 0 0 0
03-01-2020 12.8 (11:10) 6.9 (00:00) 9.9 12.78 (02:00) 8.61 (23:10) 0 0 0 0 0
02-01-2020 13.8 (11:20) 4.6 (00:00) 9.2 12.22 (02:20) 7.22 (22:00) 0 0 0 0 0
01-01-2020 14.1 (11:20) 7.7 (00:00) 10.9 12.78 (09:40) 7.5 (09:40) 0 0 0 0 0
31-12-2019 -- (--) -- (--) -- -- (--) -- (--) -- -- -- 0 0
30-12-2019 -- (--) -- (--) -- -- (--) -- (--) -- 0 0 -- 0
29-12-2019 18.6 (13:40) 8.3 (00:00) 13.5 11.11 (23:00) 7.22 (22:50) 0 0 0 0 0
28-12-2019 19.4 (10:50) 11.4 (00:00) 15.4 8.61 (23:50) 6.11 (23:50) 0 0 0 0 0
27-12-2019 16.7 (13:50) 10.5 (00:00) 13.6 11.11 (10:00) 6.11 (09:50) 0 0 0 0 0
26-12-2019 13.4 (14:50) 8.5 (00:00) 10.9 13.33 (03:40) 8.61 (04:30) 0 0 0 0 0
25-12-2019 17.2 (10:40) 10.4 (00:00) 13.8 14.72 (00:10) 8.06 (00:10) 0 0 0 0 0

Gráficas

Temp. máximas Temp. mínimas Temp. medias Precipitaciones Rachas de viento máximas Velocidades máximas media en intervalos de 10 minutos

Datos horarios

Fecha y hora oficial Temperatura (ºC) Velocidad del viento (km/h) Dirección del viento Racha (km/h) Dirección de racha Precipitación (mm) Presión (hPa) Tendencia (hPa) Humedad (%)
2020-01-23 23:00:00 0.6 0 Calma 5 Noroeste 0 -- -- 79
2020-01-23 22:00:00 1.4 0 Calma 3 Oeste 0 -- -- 83
2020-01-23 21:00:00 1.2 2 Oeste 5 Noroeste 0 -- -- 88
2020-01-23 20:00:00 3.1 0 Calma 12 Oeste 0 -- -- 92
2020-01-23 19:00:00 4.1 3 Oeste 11 Oeste 0 -- -- 95
2020-01-23 18:00:00 5.5 5 Oeste 17 Oeste 0 -- -- 87
2020-01-23 17:00:00 -- -- -- -- -- -- -- -- --
2020-01-23 16:00:00 8.4 11 Oeste 18 Oeste 0 -- -- 80
2020-01-23 15:00:00 7.5 7 Sudoeste 18 Sudoeste 0 -- -- 80
2020-01-23 14:00:00 8.6 8 Noroeste 15 Noroeste 0 -- -- 71
2020-01-23 13:00:00 7.7 5 Oeste 17 Oeste 0 -- -- 68
2020-01-23 12:00:00 9.1 7 Oeste 17 Oeste 0 -- -- 64
2020-01-23 11:00:00 8.2 6 Oeste 10 Oeste 0 -- -- 65
2020-01-23 10:00:00 5.8 4 Oeste 9 Oeste 0 -- -- 72
2020-01-23 09:00:00 6 0 Calma 6 Sudeste 0.2 -- -- 74
2020-01-23 08:00:00 1.2 2 Sudeste 6 Sudoeste 0 -- -- 94
2020-01-23 07:00:00 1.3 0 Calma 7 Sur 0 -- -- 94
2020-01-23 06:00:00 1.2 3 Sudoeste 9 Sudoeste 0 -- -- 88
2020-01-23 05:00:00 1.4 3 Sur 7 Sudeste 0 -- -- 89
2020-01-23 04:00:00 0.6 2 Sudeste 5 Sudoeste 0 -- -- 91
2020-01-23 03:00:00 1.6 0 Calma 6 Noroeste 0 -- -- 85
2020-01-23 02:00:00 1 0 Calma 5 Sudeste 0 -- -- 87
2020-01-23 01:00:00 1.3 0 Calma 4 Este 0 -- -- 91
2020-01-23 00:00:00 1.1 2 Sudeste 5 Sudeste 0 -- -- 85
2020-01-22 23:00:00 0.9 3 Sur 6 Sur 0 -- -- 90
2020-01-22 22:00:00 0.3 2 Sudeste 6 Sudeste 0 -- -- 94
2020-01-22 21:00:00 0.3 0 Calma 3 Oeste 0 -- -- 96
2020-01-22 20:00:00 0.7 0 Calma 6 Noroeste 0 -- -- 98
2020-01-22 19:00:00 2.4 3 Oeste 7 Oeste 0 -- -- 97
2020-01-22 18:00:00 3.4 6 Oeste 13 Oeste 0 -- -- 93
2020-01-22 17:00:00 3.9 6 Oeste 16 Oeste 0 -- -- 85
2020-01-22 16:00:00 3.7 9 Oeste 19 Oeste 0 -- -- 82
2020-01-22 15:00:00 4.4 7 Oeste 17 Oeste 0 -- -- 92
2020-01-22 14:00:00 5.2 10 Oeste 19 Oeste 0 -- -- 77
2020-01-22 13:00:00 5.5 3 Norte 12 Noroeste 0 -- -- 73
2020-01-22 12:00:00 6.1 5 Noroeste 15 Oeste 0 -- -- 67
2020-01-22 11:00:00 4.7 4 Oeste 9 Oeste 0 -- -- 70
2020-01-22 10:00:00 3.6 4 Oeste 8 Oeste 0 -- -- 77
2020-01-22 09:00:00 2.2 0 Calma 4 Sur 0 -- -- 84
2020-01-22 08:00:00 -1.7 2 Este 5 Norte 0 -- -- 98
2020-01-22 07:00:00 -1.5 3 Nordeste 9 Norte 0.2 -- -- 97
2020-01-22 06:00:00 -1 0 Calma 8 Nordeste 0 -- -- 99
2020-01-22 05:00:00 0.3 3 Nordeste 9 Este 0 -- -- 100
2020-01-22 04:00:00 0.7 4 Nordeste 14 Este 0 -- -- 100
2020-01-22 03:00:00 0.8 10 Nordeste 17 Este 0 -- -- 99
2020-01-22 02:00:00 1.1 5 Este 15 Nordeste 0 -- -- 100
2020-01-22 01:00:00 0.9 6 Este 13 Este 0 -- -- 100
2020-01-22 00:00:00 0.2 2 Este 8 Este 0 -- -- 100
2020-01-21 23:00:00 0.1 3 Este 10 Oeste 0 -- -- 99
2020-01-21 22:00:00 1.7 4 Oeste 11 Oeste 0 -- -- 100
2020-01-21 21:00:00 1.6 2 Sudeste 10 Norte 0 -- -- 100
2020-01-21 20:00:00 2.6 3 Noroeste 14 Oeste 0.2 -- -- 100
2020-01-21 19:00:00 2.5 7 Oeste 16 Oeste 0 -- -- 100
2020-01-21 18:00:00 2.8 4 Oeste 16 Oeste 0 -- -- 100
2020-01-21 17:00:00 2.7 10 Oeste 16 Oeste 0 -- -- 100
2020-01-21 16:00:00 2.7 9 Oeste 17 Oeste 0 -- -- 99
2020-01-21 15:00:00 2.9 9 Oeste 17 Oeste 0 -- -- 99
2020-01-21 14:00:00 2.6 8 Oeste 18 Oeste 0 -- -- 100
2020-01-21 13:00:00 2.4 11 Oeste 25 Oeste 0 -- -- 100
2020-01-21 12:00:00 2.6 16 Oeste 28 Oeste 0.4 -- -- 100
2020-01-21 11:00:00 2.9 5 Oeste 19 Oeste 0 -- -- 100
2020-01-21 10:00:00 1.9 7 Noroeste 20 Noroeste 0 -- -- 100
2020-01-21 09:00:00 1.6 4 Noroeste 26 Noroeste 0 -- -- 100
2020-01-21 08:00:00 1 5 Noroeste 23 Oeste 0 -- -- 100
2020-01-21 07:00:00 1.8 5 Noroeste 17 Norte 0 -- -- 100
2020-01-21 06:00:00 0.9 6 Noroeste 17 Oeste 0 -- -- 100
2020-01-21 05:00:00 1.5 6 Noroeste 28 Noroeste 0 -- -- 99
2020-01-21 04:00:00 1.5 6 Noroeste 21 Noroeste 0 -- -- 99
2020-01-21 03:00:00 2.4 4 Noroeste 14 Norte 0 -- -- 100
2020-01-21 02:00:00 2.5 3 Norte 18 Nordeste 0.2 -- -- 99
2020-01-21 01:00:00 3 6 Este 25 Este 0.2 -- -- 99
2020-01-21 00:00:00 3.2 6 Este 19 Oeste 0 -- -- 99
2020-01-20 23:00:00 3.1 6 Este 27 Nordeste 0.2 -- -- 99
2020-01-20 22:00:00 2.2 14 Este 30 Norte 0 -- -- 99
2020-01-20 21:00:00 3 12 Nordeste 32 Nordeste 0 -- -- 99
2020-01-20 20:00:00 2.7 8 Nordeste 27 Este 0 -- -- 98
2020-01-20 19:00:00 3.6 8 Este 21 Este 0 -- -- 98
2020-01-20 18:00:00 4.1 7 Este 18 Nordeste 0 -- -- 97
2020-01-20 17:00:00 5.7 8 Nordeste 17 Este 0 -- -- 90
2020-01-20 16:00:00 6.3 6 Nordeste 15 Nordeste 0 -- -- 86
2020-01-20 15:00:00 11.6 7 Oeste 13 Oeste 0 -- -- 60
2020-01-20 14:00:00 11 9 Oeste 18 Noroeste 0 -- -- 62
2020-01-20 13:00:00 11.8 3 Oeste 21 Este 0 -- -- 30
2020-01-20 12:00:00 6.8 11 Este 22 Este 0 -- -- 86
2020-01-20 11:00:00 11 6 Este 14 Este 0 -- -- 38
2020-01-20 10:00:00 8.8 5 Sur 14 Sudoeste 0 -- -- 36
2020-01-20 09:00:00 8 6 Este 15 Sudeste 0 -- -- 45
2020-01-20 08:00:00 6.1 5 Sudeste 16 Este 0 -- -- 24
2020-01-20 07:00:00 6.9 7 Este 22 Este 0 -- -- 28
2020-01-20 06:00:00 7.8 11 Sudeste 25 Este 0 -- -- 19
2020-01-20 05:00:00 8.9 13 Este 27 Sudeste 0 -- -- 14
2020-01-20 04:00:00 9.5 13 Este 32 Este 0 -- -- 10
2020-01-20 03:00:00 8.5 15 Este 32 Este 0 -- -- 17
2020-01-20 02:00:00 7.7 17 Este 32 Este 0 -- -- 53
2020-01-20 01:00:00 7.1 15 Este 35 Este 0 -- -- 96
2020-01-20 00:00:00 7.7 21 Este 42 Este 0 -- -- 78
2020-01-19 23:00:00 7.9 21 Este 34 Este 0 -- -- 71
2020-01-19 22:00:00 7.9 17 Este 29 Este 0 -- -- 62
2020-01-19 21:00:00 8.1 15 Este 29 Este 0 -- -- 55
2020-01-19 20:00:00 8.9 14 Este 30 Este 0 -- -- 35
2020-01-19 19:00:00 10 21 Este 35 Nordeste 0 -- -- 30
2020-01-19 18:00:00 11 21 Este 35 Sudeste 0 -- -- 32
2020-01-19 17:00:00 12.2 14 Este 24 Este 0 -- -- 26
2020-01-19 16:00:00 12.7 10 Este 23 Este 0 -- -- 43
2020-01-19 15:00:00 13.2 9 Este 23 Sudeste 0 -- -- 35
2020-01-19 14:00:00 13.1 13 Este 28 Nordeste 0 -- -- 22
2020-01-19 13:00:00 13.6 14 Este 37 Nordeste 0 -- -- 22
2020-01-19 12:00:00 13.6 14 Este 31 Este 0 -- -- 17
2020-01-19 11:00:00 13.8 12 Este 26 Este 0 -- -- 16
2020-01-19 10:00:00 12.6 12 Este 23 Este 0 -- -- 16
2020-01-19 09:00:00 10.8 14 Este 27 Este 0 -- -- 16
2020-01-19 08:00:00 9.6 14 Este 25 Este 0 -- -- 10
2020-01-19 07:00:00 9.6 13 Este 24 Este 0 -- -- 10
2020-01-19 06:00:00 10.1 10 Este 22 Este 0 -- -- 7
2020-01-19 05:00:00 10.4 14 Este 24 Este 0 -- -- 8
2020-01-19 04:00:00 9.7 6 Este 17 Este 0 -- -- 14
2020-01-19 03:00:00 11.5 13 Este 23 Este 0 -- -- 10
2020-01-19 02:00:00 10 4 Nordeste 28 Sudeste 0 -- -- 10
2020-01-19 01:00:00 12.7 19 Este 34 Este 0 -- -- 6
2020-01-19 00:00:00 11.6 17 Este 31 Sudeste 0 -- -- 7
2020-01-18 23:00:00 12 22 Este 36 Este 0 -- -- 3
2020-01-18 22:00:00 11.6 23 Este 36 Sudeste 0 -- -- 3
2020-01-18 21:00:00 11.5 24 Este 37 Sudeste 0 -- -- 3
2020-01-18 20:00:00 11.7 24 Este 38 Este 0 -- -- 3
2020-01-18 19:00:00 12.1 22 Este 37 Este 0 -- -- 4
2020-01-18 18:00:00 12.9 14 Este 27 Este 0 -- -- 5
2020-01-18 17:00:00 14.3 12 Este 24 Sudeste 0 -- -- 7
2020-01-18 16:00:00 14.8 7 Nordeste 24 Nordeste 0 -- -- 12
2020-01-18 15:00:00 15.1 6 Este 22 Este 0 -- -- 11
2020-01-18 14:00:00 14.7 9 Este 24 Este 0 -- -- 9
2020-01-18 13:00:00 14.5 11 Este 28 Este 0 -- -- 8
2020-01-18 12:00:00 14.9 13 Este 36 Nordeste 0 -- -- 9
2020-01-18 11:00:00 14.2 13 Este 31 Este 0 -- -- 9
2020-01-18 10:00:00 12.5 14 Este 31 Este 0 -- -- 10
2020-01-18 09:00:00 12.6 19 Este 30 Nordeste 0 -- -- 7
2020-01-18 08:00:00 10.4 16 Este 32 Este 0 -- -- 8
2020-01-18 07:00:00 10.3 15 Este 29 Este 0 -- -- 8
2020-01-18 06:00:00 10.5 14 Este 31 Sudeste 0 -- -- 9
2020-01-18 05:00:00 10.4 16 Este 31 Sudeste 0 -- -- 9
2020-01-18 04:00:00 10 17 Este 35 Este 0 -- -- 10
2020-01-18 03:00:00 9.8 19 Este 35 Este 0 -- -- 11
2020-01-18 02:00:00 9.5 18 Este 37 Este 0 -- -- 11
2020-01-18 01:00:00 9.4 19 Este 35 Este 0 -- -- 12
2020-01-18 00:00:00 9.7 18 Este 32 Sudeste 0 -- -- 12
2020-01-17 23:00:00 10.1 18 Este 32 Este 0 -- -- 11
2020-01-17 22:00:00 10.9 17 Este 32 Este 0 -- -- 10
2020-01-17 21:00:00 11.7 22 Este 32 Este 0 -- -- 10
2020-01-17 20:00:00 11.1 19 Este 29 Este 0 -- -- 9
2020-01-17 19:00:00 11.5 13 Este 24 Este 0 -- -- 9
2020-01-17 18:00:00 12.1 15 Este 27 Sudeste 0 -- -- 9
2020-01-17 17:00:00 13.3 14 Este 24 Este 0 -- -- 10
2020-01-17 16:00:00 14 5 Este 11 Oeste 0 -- -- 21
2020-01-17 15:00:00 14 6 Noroeste 13 Oeste 0 -- -- 22
2020-01-17 14:00:00 13.3 6 Oeste 18 Nordeste 0 -- -- 18
2020-01-17 13:00:00 14.4 7 Este 18 Este 0 -- -- 19
2020-01-17 12:00:00 15 5 Este 19 Este 0 -- -- 15
2020-01-17 11:00:00 14.1 8 Este 27 Sudeste 0 -- -- 12
2020-01-17 10:00:00 12.6 15 Este 28 Este 0 -- -- 7
2020-01-17 09:00:00 10.7 14 Este 26 Este 0 -- -- 7
2020-01-17 08:00:00 8.4 13 Este 21 Sudeste 0 -- -- 7
2020-01-17 07:00:00 9 13 Este 22 Este 0 -- -- 6
2020-01-17 06:00:00 9.2 10 Este 20 Este 0 -- -- 9
2020-01-17 05:00:00 9.8 12 Este 23 Este 0 -- -- 12
2020-01-17 04:00:00 9.6 14 Este 24 Este 0 -- -- 7
2020-01-17 03:00:00 9.1 12 Este 23 Este 0 -- -- 7
2020-01-17 02:00:00 8.3 10 Este 25 Este 0 -- -- 8
2020-01-17 01:00:00 9 17 Este 28 Nordeste 0 -- -- 6
2020-01-17 00:00:00 9.8 15 Este 25 Este 0 -- -- 5
2020-01-16 23:00:00 9.5 13 Este 24 Este 0 -- -- 6
2020-01-16 22:00:00 8.9 13 Este 21 Este 0 -- -- 7
2020-01-16 21:00:00 8.7 12 Este 20 Este 0 -- -- 7
2020-01-16 20:00:00 7.3 6 Este 14 Este 0 -- -- 10
2020-01-16 19:00:00 7.6 8 Este 14 Este 0 -- -- 11
2020-01-16 18:00:00 10 4 Este 9 Este 0 -- -- 32
2020-01-16 17:00:00 9.7 5 Oeste 14 Oeste 0 -- -- 50
2020-01-16 16:00:00 10.2 8 Oeste 15 Oeste 0 -- -- 45
2020-01-16 15:00:00 10.6 9 Oeste 19 Oeste 0 -- -- 46
2020-01-16 14:00:00 11.5 3 Oeste 16 Oeste 0 -- -- 37
2020-01-16 13:00:00 11 8 Oeste 14 Oeste 0 -- -- 31
2020-01-16 12:00:00 11.5 7 Oeste 11 Oeste 0 -- -- 33
2020-01-16 11:00:00 10.6 6 Oeste 12 Nordeste 0 -- -- 26
2020-01-16 10:00:00 11.5 3 Este 9 Este 0 -- -- 19
2020-01-16 09:00:00 8.2 3 Este 6 Nordeste 0 -- -- 22
2020-01-16 08:00:00 5.3 0 Calma 5 Sudeste 0 -- -- 14
2020-01-16 07:00:00 4.5 0 Calma 8 Sudeste 0 -- -- 15
2020-01-16 06:00:00 2.7 3 Nordeste 7 Este 0 -- -- 26
2020-01-16 05:00:00 3.3 0 Calma 13 Noroeste 0 -- -- 24
2020-01-16 04:00:00 5.5 3 Sur 12 Oeste 0 -- -- 16
2020-01-16 03:00:00 4.4 2 Nordeste 5 Este 0 -- -- 12
2020-01-16 02:00:00 4.1 2 Nordeste 5 Este 0 -- -- 18
2020-01-16 01:00:00 4.7 0 Calma 10 Sudeste 0 -- -- 12
2020-01-16 00:00:00 5.7 3 Este 12 Sudeste 0 -- -- 11
2020-01-15 23:00:00 5.8 0 Calma 16 Sudeste 0 -- -- 12
2020-01-15 22:00:00 5.6 4 Este 10 Este 0 -- -- 11
2020-01-15 21:00:00 4.7 2 Norte 9 Nordeste 0 -- -- 17
2020-01-15 20:00:00 5.1 0 Calma 10 Nordeste 0 -- -- 22
2020-01-15 19:00:00 4 0 Calma 4 Sudoeste 0 -- -- 56
2020-01-15 18:00:00 7.2 3 Oeste 13 Oeste 0 -- -- 59
2020-01-15 17:00:00 8.7 8 Oeste 18 Oeste 0 -- -- 50
2020-01-15 16:00:00 9.3 9 Oeste 19 Oeste 0 -- -- 48
2020-01-15 15:00:00 9.5 13 Oeste 21 Oeste 0 -- -- 44
2020-01-15 14:00:00 9.8 9 Oeste 15 Oeste 0 -- -- 40
2020-01-15 13:00:00 10.5 6 Sur 15 Sudoeste 0 -- -- 38
2020-01-15 12:00:00 9.7 5 Sur 18 Sur 0 -- -- 28
2020-01-15 11:00:00 8.9 8 Sudeste 17 Sudeste 0 -- -- 32
2020-01-15 10:00:00 10.5 3 Sudeste 16 Sudeste 0 -- -- 19
2020-01-15 09:00:00 7.6 6 Sudeste 19 Sudeste 0 -- -- 15
2020-01-15 08:00:00 4.3 11 Sudeste 28 Sudeste 0 -- -- 31
2020-01-15 07:00:00 3.5 3 Este 10 Este 0 -- -- 23
2020-01-15 06:00:00 4.1 3 Este 17 Sudeste 0 -- -- 19
2020-01-15 05:00:00 3.2 2 Sudeste 21 Sudeste 0 -- -- 19
2020-01-15 04:00:00 4 6 Sudeste 17 Sudeste 0 -- -- 29
2020-01-15 03:00:00 3.6 12 Sudeste 29 Sudeste 0 -- -- 45
2020-01-15 02:00:00 3.8 17 Sudeste 32 Sudeste 0 -- -- 46
2020-01-15 01:00:00 4.4 14 Sudeste 30 Sudeste 0 -- -- 29
2020-01-15 00:00:00 5.4 14 Sudeste 25 Sudeste 0 -- -- 17
2020-01-14 23:00:00 4.9 6 Sudeste 13 Sudeste 0 -- -- 18
2020-01-14 22:00:00 4.6 3 Este 9 Sudeste 0 -- -- 16
2020-01-14 21:00:00 4.5 4 Este 11 Nordeste 0 -- -- 23
2020-01-14 20:00:00 4.1 6 Nordeste 11 Este 0 -- -- 46
2020-01-14 19:00:00 4.1 0 Calma 9 Sur 0 -- -- 25
2020-01-14 18:00:00 6.2 4 Sur 16 Sudeste 0 -- -- 57
2020-01-14 17:00:00 7.5 8 Sur 19 Sur 0 -- -- 53
2020-01-14 16:00:00 7.4 9 Sudeste 21 Sudeste 0 -- -- 54
2020-01-14 15:00:00 8.8 7 Sur 22 Sudeste 0 -- -- 46
2020-01-14 14:00:00 8.5 9 Sudeste 21 Este 0 -- -- 41
2020-01-14 13:00:00 8.2 13 Sudeste 22 Sudeste 0 -- -- 50
2020-01-14 12:00:00 8 10 Sur 28 Sur 0 -- -- 49
2020-01-14 11:00:00 7.4 9 Sudeste 24 Sur 0 -- -- 48
2020-01-14 10:00:00 7.5 4 Sudeste 19 Sudeste 0 -- -- 47
2020-01-14 09:00:00 6.4 8 Sudeste 23 Sudeste 0 -- -- 43
2020-01-14 08:00:00 3.8 7 Este 33 Sudeste 0 -- -- 52
2020-01-14 07:00:00 4 8 Este 28 Sudeste 0 -- -- 49
2020-01-14 06:00:00 4.3 10 Este 34 Sudeste 0 -- -- 47
2020-01-14 05:00:00 4.6 18 Sudeste 36 Sudeste 0 -- -- 46
2020-01-14 04:00:00 4.9 17 Sudeste 41 Sudeste 0 -- -- 45
2020-01-14 03:00:00 4.9 18 Sudeste 45 Sudeste 0 -- -- 46
2020-01-14 02:00:00 5 18 Sudeste 41 Sudeste 0 -- -- 46
2020-01-14 01:00:00 5.2 18 Sudeste 39 Sudeste 0 -- -- 45
2020-01-14 00:00:00 5.5 18 Sudeste 36 Sudeste 0 -- -- 43
2020-01-13 23:00:00 5.3 20 Sudeste 38 Sudeste 0 -- -- 43
2020-01-13 22:00:00 4.9 15 Sudeste 31 Sudeste 0 -- -- 45
2020-01-13 21:00:00 4.9 15 Sudeste 32 Sudeste 0 -- -- 45
2020-01-13 20:00:00 4.7 11 Sudeste 24 Sur 0 -- -- 48
2020-01-13 19:00:00 5.1 12 Sudeste 26 Sudeste 0 -- -- 69
2020-01-13 18:00:00 6 9 Sur 21 Sudeste 0 -- -- 67
2020-01-13 17:00:00 7.7 9 Sur 22 Sur 0 -- -- 66
2020-01-13 16:00:00 8.9 8 Sur 22 Sudeste 0 -- -- 63
2020-01-13 15:00:00 8.8 12 Sur 23 Sur 0 -- -- 62
2020-01-13 14:00:00 8.5 10 Sudeste 27 Sur 0 -- -- 68
2020-01-13 13:00:00 8.9 10 Sur 24 Sur 0 -- -- 63
2020-01-13 12:00:00 9.1 14 Sudeste 23 Sudeste 0 -- -- 48
2020-01-13 11:00:00 8.4 13 Sudeste 23 Sudeste 0 -- -- 55
2020-01-13 10:00:00 8 13 Sudeste 27 Sur 0 -- -- 55
2020-01-13 09:00:00 6.7 15 Sudeste 31 Sudeste 0 -- -- 59
2020-01-13 08:00:00 5 8 Sudeste 27 Sudeste 0 -- -- 61
2020-01-13 07:00:00 5.3 14 Sudeste 35 Sur 0 -- -- 64
2020-01-13 06:00:00 5.5 17 Sudeste 41 Sudeste 0 -- -- 65
2020-01-13 05:00:00 5.8 18 Sudeste 41 Este 0 -- -- 58
2020-01-13 04:00:00 5.7 18 Sudeste 42 Sudeste 0 -- -- 56
2020-01-13 03:00:00 5.4 17 Este 38 Sudeste 0 -- -- 54
2020-01-13 02:00:00 5 15 Este 45 Este 0 -- -- 53
2020-01-13 01:00:00 4.9 21 Este 37 Sudeste 0 -- -- 49
2020-01-13 00:00:00 5.2 21 Este 38 Sudeste 0 -- -- 47
2020-01-12 23:00:00 7.8 22 Este 44 Este 0 -- -- 23
2020-01-12 22:00:00 7.6 23 Sudeste 39 Sudeste 0 -- -- 24
2020-01-12 21:00:00 8.1 17 Sudeste 35 Este 0 -- -- 20
2020-01-12 20:00:00 7 18 Este 32 Este 0 -- -- 25
2020-01-12 19:00:00 4.6 2 Este 10 Nordeste 0 -- -- 75
2020-01-12 18:00:00 8.1 0 Calma 12 Oeste 0 -- -- 87
2020-01-12 17:00:00 12.1 3 Este 14 Oeste 0 -- -- 18
2020-01-12 16:00:00 10.2 10 Oeste 15 Oeste 0 -- -- 82
2020-01-12 15:00:00 11.2 10 Oeste 16 Este 0 -- -- 72
2020-01-12 14:00:00 13.9 6 Este 17 Sudeste 0 -- -- 30
2020-01-12 13:00:00 14 7 Este 17 Este 0 -- -- 32
2020-01-12 12:00:00 11 10 Este 18 Este 0 -- -- 53
2020-01-12 11:00:00 7 12 Este 23 Este 0 -- -- 96
2020-01-12 10:00:00 4.9 12 Este 24 Este 0 -- -- 100
2020-01-12 09:00:00 3.5 12 Este 21 Nordeste 0 -- -- 99
2020-01-12 08:00:00 2 12 Este 22 Este 0 -- -- 100
2020-01-12 07:00:00 2.3 18 Este 28 Este 0 -- -- 100
2020-01-12 06:00:00 3.7 19 Este 35 Este 0 -- -- 100
2020-01-12 05:00:00 4 19 Este 36 Este 0 -- -- 100
2020-01-12 04:00:00 3.3 17 Este 35 Este 0.2 -- -- 100
2020-01-12 03:00:00 4.4 17 Este 37 Este 0 -- -- 100
2020-01-12 02:00:00 4.2 22 Este 36 Este 0 -- -- 100
2020-01-12 01:00:00 4.3 18 Este 37 Este 0.2 -- -- 100
2020-01-12 00:00:00 3.8 19 Este 37 Este 0 -- -- 100
2020-01-11 23:00:00 4.3 19 Este 37 Este 0.2 -- -- 100
2020-01-11 22:00:00 4.6 19 Este 41 Este 0.4 -- -- 100
2020-01-11 21:00:00 4.5 20 Este 33 Sudeste 0.2 -- -- 100
2020-01-11 20:00:00 3.1 13 Este 25 Este 0 -- -- 100
2020-01-11 19:00:00 4.1 16 Este 26 Este 0 -- -- 99
2020-01-11 18:00:00 5.1 13 Este 30 Nordeste 0 -- -- 99
2020-01-11 17:00:00 5.7 14 Este 29 Este 0 -- -- 98
2020-01-11 16:00:00 6.2 10 Este 21 Este 0 -- -- 95
2020-01-11 15:00:00 7.5 9 Nordeste 17 Nordeste 0 -- -- 86
2020-01-11 14:00:00 7.8 10 Este 18 Nordeste 0 -- -- 87
2020-01-11 13:00:00 12 4 Nordeste 13 Nordeste 0 -- -- 64
2020-01-11 12:00:00 13 4 Norte 15 Este 0 -- -- 27
2020-01-11 11:00:00 12.7 6 Este 13 Este 0 -- -- 42
2020-01-11 10:00:00 12.4 3 Este 13 Este 0 -- -- 17
2020-01-11 09:00:00 10.4 8 Este 14 Este 0 -- -- 18
2020-01-11 08:00:00 9.1 9 Este 22 Este 0 -- -- 15
2020-01-11 07:00:00 8.9 10 Este 24 Este 0 -- -- 17
2020-01-11 06:00:00 9.3 11 Este 26 Nordeste 0 -- -- 18
2020-01-11 05:00:00 9.1 13 Este 29 Este 0 -- -- 16
2020-01-11 04:00:00 8.9 12 Este 26 Este 0 -- -- 19
2020-01-11 03:00:00 6.1 9 Este 21 Este 0 -- -- 26
2020-01-11 02:00:00 7.7 13 Este 29 Este 0 -- -- 28
2020-01-11 01:00:00 5.6 11 Este 24 Este 0 -- -- 74
2020-01-11 00:00:00 4 10 Este 19 Este 0 -- -- 85
2020-01-10 23:00:00 4.2 12 Este 23 Este 0 -- -- 75
2020-01-10 22:00:00 4.2 18 Este 30 Este 0 -- -- 100
2020-01-10 21:00:00 4.5 18 Este 30 Sudeste 0 -- -- 93
2020-01-10 20:00:00 3.8 17 Este 30 Este 0 -- -- 100
2020-01-10 19:00:00 4.8 16 Este 35 Este 0 -- -- 100
2020-01-10 18:00:00 5.8 19 Este 39 Este 0.2 -- -- 100
2020-01-10 17:00:00 5.8 21 Este 35 Este 0.2 -- -- 100
2020-01-10 16:00:00 6.5 15 Este 35 Este 0 -- -- 100
2020-01-10 15:00:00 6.4 19 Este 35 Este 0 -- -- 100
2020-01-10 14:00:00 5.9 19 Este 42 Este 0.2 -- -- 100
2020-01-10 13:00:00 6.5 19 Este 43 Este 0.4 -- -- 100
2020-01-10 12:00:00 6.3 22 Este 42 Este 0.6 -- -- 100
2020-01-10 11:00:00 7.4 15 Sudeste 33 Este 1.6 -- -- 100
2020-01-10 10:00:00 6.9 19 Este 44 Este 1 -- -- 100
2020-01-10 09:00:00 6.7 24 Este 42 Este 0.6 -- -- 100
2020-01-10 08:00:00 5.9 20 Este 40 Este 1 -- -- 100
2020-01-10 07:00:00 6 19 Este 37 Este 1 -- -- 100
2020-01-10 06:00:00 5.2 16 Sudeste 35 Este 0.2 -- -- 100
2020-01-10 05:00:00 4.9 12 Sudeste 33 Noroeste 0.2 -- -- 100
2020-01-10 04:00:00 4.8 11 Sudeste 35 Este 0.4 -- -- 100
2020-01-10 03:00:00 4.3 12 Sur 31 Este 0.2 -- -- 100
2020-01-10 02:00:00 5 12 Sudeste 43 Este 0.2 -- -- 100
2020-01-10 01:00:00 3.8 25 Este 47 Este 0 -- -- 100
2020-01-10 00:00:00 3.7 23 Este 47 Este 0 -- -- 100
2020-01-09 23:00:00 4 19 Este 47 Este 0 -- -- 100
2020-01-09 22:00:00 4.3 15 Este 38 Este 0 -- -- 100
2020-01-09 21:00:00 3.5 15 Este 36 Este 0.2 -- -- 100
2020-01-09 20:00:00 5 10 Sudeste 33 Este 0.4 -- -- 100
2020-01-09 19:00:00 4.2 19 Este 39 Este 0 -- -- 100
2020-01-09 18:00:00 4.3 14 Sudeste 35 Este 0 -- -- 100
2020-01-09 17:00:00 4.6 16 Este 42 Este 0 -- -- 100
2020-01-09 16:00:00 4.4 19 Este 36 Este 0 -- -- 100
2020-01-09 15:00:00 4.7 14 Este 36 Este 0 -- -- 100
2020-01-09 14:00:00 4.5 18 Este 34 Este 0 -- -- 100
2020-01-09 13:00:00 4.5 17 Este 36 Este 0 -- -- 100
2020-01-09 12:00:00 4.3 17 Este 32 Este 0 -- -- 100
2020-01-09 11:00:00 4.6 19 Este 37 Este 0 -- -- 100
2020-01-09 10:00:00 3.6 19 Este 34 Este 0 -- -- 100
2020-01-09 09:00:00 3.6 17 Este 36 Este 0 -- -- 100
2020-01-09 08:00:00 3.4 17 Este 36 Este 0 -- -- 100
2020-01-09 07:00:00 3.9 17 Este 40 Este 0 -- -- 100
2020-01-09 06:00:00 3.2 14 Este 31 Este 0 -- -- 100
2020-01-09 05:00:00 3.6 15 Este 36 Este 0 -- -- 100
2020-01-09 04:00:00 3.4 20 Este 36 Nordeste 0 -- -- 100
2020-01-09 03:00:00 2.8 19 Este 39 Este 0 -- -- 100
2020-01-09 02:00:00 3 18 Este 35 Este 0 -- -- 100
2020-01-09 01:00:00 3.8 10 Sur 23 Nordeste 0 -- -- 100
2020-01-09 00:00:00 4.5 9 Sudoeste 44 Este 0.2 -- -- 100
2020-01-08 23:00:00 4.1 9 Sudoeste 26 Este 0 -- -- 100
2020-01-08 22:00:00 3.3 7 Sur 26 Sudeste 0 -- -- 100
2020-01-08 21:00:00 3.6 7 Sur 25 Este 0 -- -- 100
2020-01-08 20:00:00 3.6 8 Sur 24 Sudeste 0 -- -- 100
2020-01-08 19:00:00 4.1 9 Sur 28 Este 0 -- -- 100
2020-01-08 18:00:00 4.4 13 Este 37 Este 0 -- -- 100
2020-01-08 17:00:00 4.1 7 Este 18 Sudeste 0 -- -- 100
2020-01-08 16:00:00 4.7 6 Este 15 Este 0 -- -- 100
2020-01-08 15:00:00 4.7 3 Sur 22 Este 0 -- -- 100
2020-01-08 14:00:00 4.7 6 Este 21 Este 0 -- -- 100
2020-01-08 13:00:00 4.3 8 Sudeste 29 Este 0 -- -- 100
2020-01-08 12:00:00 4.5 9 Sudeste 32 Este 0 -- -- 100
2020-01-08 11:00:00 4.1 6 Sudeste 34 Este 0.4 -- -- 100
2020-01-08 10:00:00 3.6 18 Este 38 Este 0 -- -- 100
2020-01-08 09:00:00 3.5 21 Este 51 Este 0 -- -- 100
2020-01-08 08:00:00 3.2 18 Este 37 Este 0 -- -- 100
2020-01-08 07:00:00 2.9 16 Este 43 Este 0 -- -- 100
2020-01-08 06:00:00 2.9 17 Este 46 Este 0 -- -- 100
2020-01-08 05:00:00 3 14 Sudeste 37 Este 0 -- -- 100
2020-01-08 04:00:00 3 14 Este 41 Este 0 -- -- 100
2020-01-08 03:00:00 3 14 Sudeste 39 Este 0 -- -- 100
2020-01-08 02:00:00 3.4 20 Este 40 Este 0 -- -- 100
2020-01-08 01:00:00 3.3 16 Este 34 Nordeste 0 -- -- 100
2020-01-08 00:00:00 3 9 Sudeste 26 Sudeste 0 -- -- 100
2020-01-07 23:00:00 3 9 Sur 31 Este 0 -- -- 100
2020-01-07 22:00:00 3.3 12 Sudeste 39 Este 0 -- -- 100
2020-01-07 21:00:00 3.3 13 Sudeste 35 Este 0 -- -- 100
2020-01-07 20:00:00 3.7 8 Sudeste 34 Este 0 -- -- 100
2020-01-07 19:00:00 3.4 11 Sudeste 29 Sudeste 0 -- -- 99
2020-01-07 18:00:00 3.5 9 Sudeste 26 Este 0 -- -- 91
2020-01-07 17:00:00 4.7 8 Este 23 Nordeste 0 -- -- 88
2020-01-07 16:00:00 5.5 9 Este 26 Nordeste 0 -- -- 70
2020-01-07 15:00:00 6 9 Este 22 Este 0 -- -- 60
2020-01-07 14:00:00 5 11 Este 27 Nordeste 0 -- -- 93
2020-01-07 13:00:00 4.7 13 Este 30 Este 0 -- -- 100
2020-01-07 12:00:00 3.6 14 Este 33 Este 0 -- -- 100
2020-01-07 11:00:00 3.3 14 Este 41 Nordeste 0 -- -- 100
2020-01-07 10:00:00 2.9 18 Este 41 Nordeste 0 -- -- 100
2020-01-07 09:00:00 2.7 19 Este 41 Este 0 -- -- 100
2020-01-07 08:00:00 2.5 21 Este 47 Nordeste 0 -- -- 100
2020-01-07 07:00:00 2.9 21 Este 46 Este 0 -- -- 100
2020-01-07 06:00:00 3.3 24 Este 47 Este 0.4 -- -- 100
2020-01-07 05:00:00 4 14 Sudeste 41 Este 0 -- -- 100
2020-01-07 04:00:00 3 12 Sudeste 32 Este 0.2 -- -- 100
2020-01-07 03:00:00 3.8 8 Oeste 42 Noroeste 0.8 -- -- 100
2020-01-07 02:00:00 4.2 13 Oeste 32 Oeste 1.4 -- -- 100
2020-01-07 01:00:00 4.1 13 Oeste 35 Noroeste 0.2 -- -- 100
2020-01-07 00:00:00 3.6 12 Oeste 41 Noroeste 0 -- -- 100
2020-01-06 23:00:00 3.9 13 Oeste 31 Noroeste 0.2 -- -- 100
2020-01-06 22:00:00 4.1 12 Oeste 34 Noroeste 0.8 -- -- 100
2020-01-06 21:00:00 4.4 12 Oeste 35 Oeste 0.6 -- -- 100
2020-01-06 20:00:00 4.4 9 Oeste 27 Oeste 0 -- -- 100
2020-01-06 19:00:00 4.1 8 Sudoeste 24 Este 0 -- -- 100
2020-01-06 18:00:00 4 8 Sur 28 Este 0 -- -- 100
2020-01-06 17:00:00 4.4 9 Sudeste 33 Nordeste 0 -- -- 99
2020-01-06 16:00:00 5 9 Este 29 Este 0 -- -- 98
2020-01-06 15:00:00 5 9 Sudeste 28 Este 0 -- -- 98
2020-01-06 14:00:00 5.1 13 Este 33 Este 0 -- -- 99
2020-01-06 13:00:00 4.8 9 Este 30 Este 0 -- -- 99
2020-01-06 12:00:00 4.5 12 Este 40 Este 0 -- -- 100
2020-01-06 11:00:00 4.1 10 Sudeste 30 Nordeste 0.2 -- -- 99
2020-01-06 10:00:00 4.1 12 Sudeste 45 Este 0.2 -- -- 100
2020-01-06 09:00:00 3.3 13 Este 36 Este 0 -- -- 99